createdAt,value
2018-10-09T00:00:55.143Z,27.93
2018-10-09T00:03:59.245Z,28.37
2018-10-09T00:07:03.386Z,27.13
2018-10-09T00:10:07.551Z,29.37
2018-10-09T00:13:11.722Z,28.63
2018-10-09T00:16:15.880Z,29.03
2018-10-09T00:19:20.096Z,29.13
2018-10-09T00:22:24.237Z,29.97
2018-10-09T00:25:28.374Z,29.07
2018-10-09T00:28:32.545Z,28.03
2018-10-09T00:31:36.763Z,28.93
2018-10-09T00:34:40.902Z,29.60
2018-10-09T00:37:45.306Z,29.90
2018-10-09T00:40:49.450Z,28.43
2018-10-09T00:43:53.637Z,30.23
2018-10-09T00:46:57.767Z,29.00
2018-10-09T00:50:01.923Z,31.03
2018-10-09T00:53:06.191Z,31.40
2018-10-09T00:56:10.615Z,30.23
2018-10-09T00:59:14.747Z,29.53
2018-10-09T01:02:18.927Z,27.90
2018-10-09T01:05:23.169Z,27.20
2018-10-09T01:08:27.326Z,25.97
2018-10-09T01:11:31.462Z,27.83
2018-10-09T01:14:35.619Z,27.13
2018-10-09T01:17:39.814Z,25.47
2018-10-09T01:20:43.944Z,29.57
2018-10-09T01:23:48.169Z,28.67
2018-10-09T01:26:52.350Z,28.13
2018-10-09T01:29:56.481Z,28.83
2018-10-09T01:33:01.239Z,19.53
2018-10-09T01:36:05.350Z,19.70
2018-10-09T01:39:10.363Z,23.20
2018-10-09T01:42:14.517Z,25.97
2018-10-09T01:45:18.653Z,26.13
2018-10-09T01:48:22.798Z,23.10
2018-10-09T01:51:26.926Z,24.50
2018-10-09T01:54:31.058Z,25.30
2018-10-09T01:57:35.239Z,26.50
2018-10-09T02:00:39.362Z,29.03
2018-10-09T02:03:43.499Z,30.00
2018-10-09T02:06:47.737Z,30.30
2018-10-09T02:09:51.862Z,30.57
2018-10-09T02:12:55.994Z,33.83
2018-10-09T02:16:00.201Z,35.60
2018-10-09T02:19:04.326Z,27.90
2018-10-09T02:22:08.466Z,30.53
2018-10-09T02:25:12.602Z,33.90
2018-10-09T02:28:16.932Z,31.47
2018-10-09T02:31:21.067Z,32.00
2018-10-09T02:34:25.234Z,27.53
2018-10-09T02:37:29.342Z,28.93
2018-10-09T02:40:33.480Z,26.90
2018-10-09T02:43:37.614Z,27.27
2018-10-09T02:46:41.806Z,25.80
2018-10-09T02:49:45.936Z,28.37
2018-10-09T02:52:50.272Z,26.17
2018-10-09T02:55:54.389Z,29.83
2018-10-09T02:58:58.519Z,31.50
2018-10-09T03:02:02.661Z,30.47
2018-10-09T03:05:07.127Z,29.30
2018-10-09T03:08:11.395Z,29.47
2018-10-09T03:11:16.380Z,29.53
2018-10-09T03:14:20.502Z,29.87
2018-10-09T03:17:24.627Z,29.77
2018-10-09T03:20:28.803Z,30.47
2018-10-09T03:23:32.903Z,31.60
2018-10-09T03:26:37.034Z,29.03
2018-10-09T03:29:41.164Z,32.77
2018-10-09T03:32:45.299Z,32.10
2018-10-09T03:35:49.428Z,30.20
2018-10-09T03:38:53.566Z,32.47
2018-10-09T03:41:57.810Z,32.33
2018-10-09T03:45:01.972Z,29.60
2018-10-09T03:48:06.150Z,30.00
2018-10-09T03:51:10.299Z,28.73
2018-10-09T03:54:14.427Z,30.57
2018-10-09T03:57:18.550Z,30.60
2018-10-09T04:00:22.692Z,28.90
2018-10-09T04:03:26.830Z,31.17
2018-10-09T04:06:30.966Z,27.63
2018-10-09T04:09:35.173Z,27.97
2018-10-09T04:12:39.304Z,31.57
2018-10-09T04:15:43.418Z,31.50
2018-10-09T04:18:47.542Z,34.40
2018-10-09T04:21:51.670Z,31.00
2018-10-09T04:24:55.846Z,31.40
2018-10-09T04:27:59.971Z,31.73
2018-10-09T04:31:04.126Z,29.20
2018-10-09T04:34:08.708Z,30.73
2018-10-09T04:37:12.925Z,29.73
2018-10-09T04:40:17.052Z,30.43
2018-10-09T04:43:21.194Z,31.43
2018-10-09T04:46:25.328Z,31.27
2018-10-09T04:49:29.495Z,32.33
2018-10-09T04:52:33.623Z,33.47
2018-10-09T04:55:37.766Z,28.00
2018-10-09T04:58:42.007Z,27.67
2018-10-09T05:01:46.146Z,35.40
2018-10-09T05:04:50.280Z,33.47
2018-10-09T05:07:54.398Z,36.20
2018-10-09T05:10:58.531Z,33.60
2018-10-09T05:14:02.666Z,35.33
2018-10-09T05:17:07.178Z,35.90
2018-10-09T05:20:11.744Z,36.67
2018-10-09T05:23:15.892Z,35.83
2018-10-09T05:26:20.016Z,36.47
2018-10-09T05:29:24.147Z,37.50
2018-10-09T05:32:28.282Z,36.80
2018-10-09T05:35:32.493Z,34.67
2018-10-09T05:38:36.622Z,35.87
2018-10-09T05:41:40.886Z,36.20
2018-10-09T05:44:45.078Z,39.77
2018-10-09T05:47:49.365Z,40.60
2018-10-09T05:50:53.517Z,35.57
2018-10-09T05:53:57.639Z,32.93
2018-10-09T05:57:01.771Z,37.10
2018-10-09T06:00:06.479Z,35.00
2018-10-09T06:03:10.615Z,35.37
2018-10-09T06:06:14.766Z,33.57
2018-10-09T06:09:18.901Z,37.07
2018-10-09T06:12:23.031Z,36.67
2018-10-09T06:15:27.200Z,33.20
2018-10-09T06:18:31.298Z,32.33
2018-10-09T06:21:35.454Z,33.47
2018-10-09T06:24:39.579Z,33.77
2018-10-09T06:27:43.711Z,35.80
2018-10-09T06:30:48.723Z,35.27
2018-10-09T06:33:52.884Z,34.53
2018-10-09T06:36:57.050Z,34.63
2018-10-09T06:40:01.190Z,35.57
2018-10-09T06:43:05.367Z,30.13
2018-10-09T06:46:09.506Z,34.63
2018-10-09T06:49:13.683Z,38.57
2018-10-09T06:52:17.830Z,38.23
2018-10-09T06:55:21.969Z,39.70
2018-10-09T06:58:26.343Z,38.23
2018-10-09T07:01:30.492Z,39.77
2018-10-09T07:04:34.622Z,39.43
2018-10-09T07:07:38.758Z,41.43
2018-10-09T07:10:43.057Z,39.30
2018-10-09T07:13:47.203Z,40.77
2018-10-09T07:16:51.351Z,38.37
2018-10-09T07:19:55.479Z,42.07
2018-10-09T07:22:59.646Z,44.00
2018-10-09T07:26:03.777Z,42.50
2018-10-09T07:29:07.927Z,43.23
2018-10-09T07:32:12.059Z,44.47
2018-10-09T07:35:16.199Z,41.30
2018-10-09T07:38:20.339Z,43.13
2018-10-09T07:41:24.470Z,44.40
2018-10-09T07:44:28.619Z,48.70
2018-10-09T07:47:32.751Z,49.53
2018-10-09T07:50:36.891Z,47.03
2018-10-09T07:53:41.082Z,47.30
2018-10-09T07:56:45.203Z,45.90
2018-10-09T07:59:49.346Z,48.97
2018-10-09T08:02:53.534Z,48.20
2018-10-09T08:05:57.686Z,44.70
2018-10-09T08:09:01.822Z,48.20
2018-10-09T08:12:05.970Z,49.77
2018-10-09T08:15:10.104Z,44.10
2018-10-09T08:18:14.249Z,44.53
2018-10-09T08:21:18.374Z,46.60
2018-10-09T08:24:22.528Z,44.27
2018-10-09T08:27:26.690Z,46.80
2018-10-09T08:30:30.837Z,46.23
2018-10-09T08:33:34.967Z,44.80
2018-10-09T08:36:39.091Z,47.30
2018-10-09T08:39:43.224Z,42.23
2018-10-09T08:42:47.364Z,49.27
2018-10-09T08:45:51.500Z,50.00
2018-10-09T08:48:55.644Z,49.63
2018-10-09T08:51:59.834Z,52.43
2018-10-09T08:55:03.915Z,51.93
2018-10-09T08:58:08.051Z,51.70
2018-10-09T09:01:12.183Z,51.40
2018-10-09T09:04:16.322Z,52.27
2018-10-09T09:07:20.503Z,49.70
2018-10-09T09:10:24.639Z,47.40
2018-10-09T09:13:28.774Z,46.13
2018-10-09T09:16:33.000Z,44.87
2018-10-09T09:19:37.143Z,44.13
2018-10-09T09:22:41.292Z,45.90
2018-10-09T09:25:45.431Z,44.87
2018-10-09T09:28:49.571Z,47.37
2018-10-09T09:31:53.700Z,44.57
2018-10-09T09:34:57.827Z,46.67
2018-10-09T09:38:01.974Z,44.73
2018-10-09T09:41:06.337Z,43.05
2018-10-09T09:44:10.469Z,42.13
2018-10-09T09:47:14.618Z,45.60
2018-10-09T09:50:18.818Z,43.40
2018-10-09T09:53:22.949Z,43.05
2018-10-09T09:56:27.090Z,41.23
2018-10-09T09:59:31.407Z,40.80
2018-10-09T10:02:35.582Z,41.53
2018-10-09T10:05:39.706Z,40.10
2018-10-09T10:08:43.849Z,37.42
2018-10-09T10:11:47.999Z,35.73
2018-10-09T10:14:52.139Z,38.02
2018-10-09T10:17:56.271Z,38.85
2018-10-09T10:21:00.408Z,35.92
2018-10-09T10:24:04.618Z,37.90
2018-10-09T10:27:08.756Z,36.00
2018-10-09T10:30:12.900Z,37.45
2018-10-09T10:33:17.051Z,36.77
2018-10-09T10:36:21.175Z,34.67
2018-10-09T10:39:25.322Z,34.65
2018-10-09T10:42:29.466Z,31.77
2018-10-09T10:45:33.602Z,28.10
2018-10-09T10:48:42.440Z,31.15
2018-10-09T10:51:46.580Z,30.80
2018-10-09T10:54:50.733Z,25.65
2018-10-09T10:57:54.861Z,27.45
2018-10-09T11:00:58.998Z,27.55
2018-10-09T11:04:03.129Z,25.05
2018-10-09T11:07:07.276Z,23.22
2018-10-09T11:10:11.418Z,23.98
2018-10-09T11:13:15.560Z,26.02
2018-10-09T11:16:19.986Z,25.43
2018-10-09T11:19:24.139Z,27.22
2018-10-09T11:22:28.368Z,28.87
2018-10-09T11:25:32.495Z,28.95
2018-10-09T11:28:36.634Z,25.85
2018-10-09T11:31:40.775Z,27.20
2018-10-09T11:34:44.922Z,27.42
2018-10-09T11:37:49.071Z,30.82
2018-10-09T11:40:53.198Z,27.30
2018-10-09T11:43:57.338Z,26.80
2018-10-09T11:47:01.471Z,27.40
2018-10-09T11:50:06.499Z,27.07
2018-10-09T11:53:10.651Z,24.27
2018-10-09T11:56:14.794Z,25.88
2018-10-09T11:59:18.927Z,24.47
2018-10-09T12:02:23.055Z,24.07
2018-10-09T12:05:27.186Z,25.05
2018-10-09T12:08:31.343Z,27.20
2018-10-09T12:11:35.486Z,24.18
2018-10-09T12:14:39.631Z,27.37
2018-10-09T12:17:43.814Z,27.85
2018-10-09T12:20:47.968Z,25.02
2018-10-09T12:23:52.115Z,24.95
2018-10-09T12:26:56.298Z,25.52
2018-10-09T12:30:00.399Z,24.75
2018-10-09T12:33:04.614Z,24.40
2018-10-09T12:36:08.662Z,24.57
2018-10-09T12:39:13.894Z,24.55
2018-10-09T12:42:17.999Z,23.35
2018-10-09T12:45:22.149Z,22.00
2018-10-09T12:48:26.258Z,22.20
2018-10-09T12:51:30.360Z,22.52
2018-10-09T12:54:34.466Z,21.20
2018-10-09T12:57:38.589Z,21.48
2018-10-09T13:00:42.707Z,21.25
2018-10-09T13:03:46.905Z,17.73
2018-10-09T13:06:51.008Z,19.95
2018-10-09T13:09:55.125Z,17.52
2018-10-09T13:12:59.239Z,17.62
2018-10-09T13:16:03.352Z,19.30
2018-10-09T13:19:07.482Z,19.37
2018-10-09T13:22:11.876Z,15.93
2018-10-09T13:25:15.697Z,15.25
2018-10-09T13:28:19.815Z,14.55
2018-10-09T13:31:23.935Z,14.80
2018-10-09T13:34:28.093Z,14.35
2018-10-09T13:37:32.174Z,14.70
2018-10-09T13:40:36.279Z,14.40
2018-10-09T13:43:40.388Z,13.95
2018-10-09T13:46:44.511Z,13.60
2018-10-09T13:49:48.622Z,13.58
2018-10-09T13:52:52.730Z,14.05
2018-10-09T13:55:56.842Z,13.78
2018-10-09T13:59:00.978Z,13.90
2018-10-09T14:02:05.115Z,12.98
2018-10-09T14:05:09.207Z,14.45
2018-10-09T14:08:13.347Z,14.43
2018-10-09T14:11:17.647Z,14.38
2018-10-09T14:14:21.738Z,13.80
2018-10-09T14:17:25.839Z,15.55
2018-10-09T14:20:29.952Z,14.65
2018-10-09T14:23:34.067Z,12.95
2018-10-09T14:26:38.479Z,12.78
2018-10-09T14:29:42.570Z,12.63
2018-10-09T14:32:46.779Z,12.75
2018-10-09T14:35:50.874Z,13.83
2018-10-09T14:38:54.980Z,14.35
2018-10-09T14:41:59.082Z,13.00
2018-10-09T14:45:03.203Z,12.00
2018-10-09T14:48:07.328Z,12.95
2018-10-09T14:51:11.475Z,13.98
2018-10-09T14:54:15.582Z,12.15
2018-10-09T14:57:19.707Z,13.28
2018-10-09T15:00:23.827Z,11.93
2018-10-09T15:03:28.012Z,13.13
2018-10-09T15:06:32.066Z,12.63
2018-10-09T15:09:36.233Z,11.03
2018-10-09T15:12:40.331Z,12.85
2018-10-09T15:15:44.463Z,12.70
2018-10-09T15:18:48.578Z,12.80
2018-10-09T15:21:52.683Z,11.48
2018-10-09T15:24:56.837Z,12.73
2018-10-09T15:28:00.951Z,11.28
2018-10-09T15:31:05.123Z,11.88
2018-10-09T15:34:09.255Z,11.53
2018-10-09T15:37:13.384Z,11.45
2018-10-09T15:40:17.495Z,11.22
2018-10-09T15:43:21.610Z,10.23
2018-10-09T15:46:25.726Z,10.78
2018-10-09T15:49:29.839Z,10.10
2018-10-09T15:52:34.027Z,10.43
2018-10-09T15:55:38.099Z,9.95
2018-10-09T15:58:42.225Z,10.23
2018-10-09T16:01:46.334Z,10.53
2018-10-09T16:04:50.440Z,9.78
2018-10-09T16:07:54.566Z,10.23
2018-10-09T16:10:58.710Z,9.73
2018-10-09T16:14:02.823Z,10.55
2018-10-09T16:17:07.051Z,10.72
2018-10-09T16:20:11.151Z,9.30
2018-10-09T16:23:15.258Z,10.30
2018-10-09T16:26:19.384Z,11.55
2018-10-09T16:29:23.504Z,10.72
2018-10-09T16:32:27.644Z,11.18
2018-10-09T16:35:31.782Z,11.35
2018-10-09T16:38:35.890Z,11.65
2018-10-09T16:41:40.203Z,11.20
2018-10-09T16:44:44.335Z,11.78
2018-10-09T16:47:48.442Z,12.58
2018-10-09T16:50:52.602Z,12.20
2018-10-09T16:53:56.750Z,12.60
2018-10-09T16:57:00.885Z,14.53
2018-10-09T17:00:05.023Z,12.63
2018-10-09T17:03:09.139Z,13.45
2018-10-09T17:06:13.267Z,13.95
2018-10-09T17:09:17.367Z,13.83
2018-10-09T17:12:21.531Z,13.60
2018-10-09T17:15:25.716Z,14.30
2018-10-09T17:18:29.794Z,16.17
2018-10-09T17:21:33.897Z,16.40
2018-10-09T17:24:38.004Z,17.07
2018-10-09T17:27:42.119Z,17.77
2018-10-09T17:30:46.226Z,17.90
2018-10-09T17:33:50.391Z,18.73
2018-10-09T17:36:54.494Z,19.40
2018-10-09T17:39:58.621Z,20.17
2018-10-09T17:43:02.751Z,20.80
2018-10-09T17:46:06.956Z,22.27
2018-10-09T17:49:11.059Z,23.53
2018-10-09T17:52:15.154Z,23.30
2018-10-09T17:55:19.293Z,25.67
2018-10-09T17:58:23.447Z,23.80
2018-10-09T18:01:27.599Z,24.20
2018-10-09T18:04:31.739Z,22.30
2018-10-09T18:07:35.839Z,24.00
2018-10-09T18:10:39.963Z,24.70
2018-10-09T18:13:44.070Z,24.87
2018-10-09T18:16:48.189Z,25.57
2018-10-09T18:19:52.303Z,25.90
2018-10-09T18:22:56.399Z,25.77
2018-10-09T18:26:01.096Z,27.77
2018-10-09T18:29:05.198Z,29.40
2018-10-09T18:32:09.415Z,29.70
2018-10-09T18:35:13.542Z,31.03
2018-10-09T18:38:17.637Z,31.27
2018-10-09T18:41:21.896Z,32.50
2018-10-09T18:44:25.866Z,33.13
2018-10-09T18:47:35.375Z,31.43
2018-10-09T18:50:39.492Z,32.00
2018-10-09T18:53:44.496Z,32.63
2018-10-09T18:56:48.607Z,32.33
2018-10-09T18:59:52.724Z,32.20
2018-10-09T19:02:56.827Z,32.47
2018-10-09T19:06:01.058Z,33.43
2018-10-09T19:09:09.482Z,33.17
2018-10-09T19:12:13.574Z,34.53
2018-10-09T19:15:17.683Z,34.57
2018-10-09T19:18:22.289Z,33.00
2018-10-09T19:21:26.398Z,33.73
2018-10-09T19:24:30.515Z,34.47
2018-10-09T19:27:34.625Z,33.30
2018-10-09T19:30:38.739Z,35.37
2018-10-09T19:33:42.883Z,34.70
2018-10-09T19:36:46.991Z,35.93
2018-10-09T19:39:51.111Z,36.73
2018-10-09T19:42:55.226Z,37.20
2018-10-09T19:45:59.346Z,36.57
2018-10-09T19:49:03.450Z,36.60
2018-10-09T19:52:07.675Z,38.37
2018-10-09T19:55:11.812Z,38.07
2018-10-09T19:58:15.933Z,38.67
2018-10-09T20:01:20.223Z,38.63
2018-10-09T20:04:24.191Z,37.13
2018-10-09T20:07:28.318Z,39.00
2018-10-09T20:10:32.534Z,37.67
2018-10-09T20:13:36.750Z,37.93
2018-10-09T20:16:41.009Z,37.13
2018-10-09T20:19:45.230Z,39.50
2018-10-09T20:22:49.459Z,37.87
2018-10-09T20:25:53.656Z,38.73
2018-10-09T20:28:57.938Z,39.37
2018-10-09T20:32:02.064Z,40.73
2018-10-09T20:35:06.601Z,40.77
2018-10-09T20:38:10.836Z,38.77
2018-10-09T20:41:14.951Z,38.23
2018-10-09T20:44:19.088Z,38.80
2018-10-09T20:47:28.474Z,36.90
2018-10-09T20:50:32.593Z,40.33
2018-10-09T20:53:36.726Z,37.23
2018-10-09T20:56:40.883Z,38.43
2018-10-09T20:59:44.991Z,36.73
2018-10-09T21:02:49.134Z,35.70
2018-10-09T21:05:53.427Z,34.83
2018-10-09T21:08:57.375Z,34.73
2018-10-09T21:12:01.490Z,34.33
2018-10-09T21:15:05.617Z,34.63
2018-10-09T21:18:09.737Z,35.70
2018-10-09T21:21:13.866Z,35.80
2018-10-09T21:24:17.986Z,34.77
2018-10-09T21:27:22.112Z,36.10
2018-10-09T21:30:26.218Z,36.70
2018-10-09T21:33:30.330Z,33.10
2018-10-09T21:36:34.484Z,35.00
2018-10-09T21:39:38.547Z,32.87
2018-10-09T21:42:42.674Z,35.13
2018-10-09T21:45:46.878Z,32.23
2018-10-09T21:48:50.993Z,33.77
2018-10-09T21:51:55.126Z,31.73
2018-10-09T21:54:59.228Z,35.10
2018-10-09T21:58:03.366Z,32.20
2018-10-09T22:01:10.326Z,33.00
2018-10-09T22:04:14.447Z,35.43
2018-10-09T22:07:19.085Z,34.43
2018-10-09T22:10:23.237Z,35.57
2018-10-09T22:13:27.348Z,37.80
2018-10-09T22:16:31.459Z,34.13
2018-10-09T22:19:35.591Z,33.27
2018-10-09T22:22:39.897Z,35.23
2018-10-09T22:25:44.030Z,36.53
2018-10-09T22:28:48.158Z,37.03
2018-10-09T22:31:52.259Z,36.57
2018-10-09T22:34:56.406Z,34.63
2018-10-09T22:38:00.528Z,35.80
2018-10-09T22:41:04.649Z,36.10
2018-10-09T22:44:08.857Z,34.20
2018-10-09T22:47:12.908Z,35.23
2018-10-09T22:50:17.015Z,34.03
2018-10-09T22:53:21.126Z,34.87
2018-10-09T22:56:25.246Z,34.70
2018-10-09T22:59:29.344Z,34.83
2018-10-09T23:02:33.453Z,34.27
2018-10-09T23:05:37.582Z,34.53
2018-10-09T23:08:41.690Z,33.50
2018-10-09T23:25:56.746Z,38.13
2018-10-09T23:29:00.850Z,35.47
2018-10-09T23:32:04.958Z,35.10
2018-10-09T23:35:09.074Z,35.87
2018-10-09T23:38:13.190Z,35.73
2018-10-09T23:41:17.306Z,35.77
2018-10-09T23:44:21.423Z,34.60
2018-10-09T23:47:25.540Z,35.50
2018-10-09T23:50:29.630Z,34.30
2018-10-09T23:53:33.747Z,34.00
2018-10-09T23:56:37.862Z,34.10
2018-10-09T23:59:41.970Z,35.80
